Sunflower Hakata — JL6711 — position and weather

sailwx.info

Track history (hours):
 
Tides and Currents Weather Stations Pressure Air Temp Water Temp Dewpoint Dewpoint Depression Visibility Wind Speed Wind Dir Waves Ship Positions

Sunflower Hakata

Last reported at 2016-Jul-26 02:34 UTC. Time now 2016-Jul-26 02:41 UTC.
Position N 35°37' E 139°48'.

Length 167 m; draft 6.5 m.

Type: Cargo ship. MMSI: 431501764.

Date/timePositionNaut miles runAvg speedWind from/ knotsBaromVisibWave heightAir tempDewpointWater temp
2016-Jul-26 02:34N 35°37' E 139°48'0 0.0
2016-Jul-26 01:31N 35°37' E 139°48'0 0.0
2016-Jul-26 00:34N 35°37' E 139°48'0 0.0
2016-Jul-25 23:31N 35°37' E 139°48'0 0.2
2016-Jul-25 22:31N 35°37' E 139°48'0 0.0
2016-Jul-25 21:31N 35°37' E 139°48'0 0.0
2016-Jul-25 20:31N 35°37' E 139°48'0 0.0
2016-Jul-25 19:31N 35°37' E 139°48'0 0.0
2016-Jul-25 18:28N 35°37' E 139°48'0 0.0
2016-Jul-25 17:31N 35°37' E 139°48'0 0.0
2016-Jul-25 16:31N 35°37' E 139°48'0 0.0
2016-Jul-25 15:28N 35°37' E 139°48'0 0.0
2016-Jul-25 14:31N 35°37' E 139°48'0 0.0
2016-Jul-25 13:31N 35°37' E 139°48'0 0.0
2016-Jul-25 12:31N 35°37' E 139°48'0 0.0
2016-Jul-25 11:31N 35°37' E 139°48'0 0.0
2016-Jul-25 10:28N 35°37' E 139°48'0 0.0
2016-Jul-25 09:31N 35°37' E 139°48'0 0.0
2016-Jul-25 08:31N 35°37' E 139°48'0 0.0
2016-Jul-25 07:28N 35°37' E 139°48'0 0.0
2016-Jul-25 06:28N 35°37' E 139°48'0 0.0
2016-Jul-25 05:28N 35°37' E 139°48'0 0.0
2016-Jul-25 04:31N 35°37' E 139°48'0 0.0
2016-Jul-25 03:31N 35°37' E 139°48'0 0.0
2016-Jul-25 02:31N 35°37' E 139°48'0 0.0
2016-Jul-25 01:31N 35°37' E 139°48'0 0.0
2016-Jul-25 00:31N 35°37' E 139°48'0 0.0
2016-Jul-24 23:31N 35°37' E 139°48'0 0.0
2016-Jul-24 22:31N 35°37' E 139°48'0 0.0
2016-Jul-24 21:31N 35°37' E 139°48'0 0.0
2016-Jul-24 20:33N 35°37' E 139°48'6 6.4
2016-Jul-24 19:33N 35°31' E 139°52'1514.7
2016-Jul-24 18:33N 35°18' E 139°45'1615.7
2016-Jul-24 17:33N 35°03' E 139°40'7221.6
2016-Jul-24 14:14N 34°24' E 138°26'17317.8
2016-Jul-24 04:34N 34°08' E 134°59'2121.2
2016-Jul-24 03:34N 34°29' E 135°01'1211.7
2016-Jul-24 02:31N 34°33' E 134°47'  
2016-Jul-21 15:14N 34°52' E 139°20'1622.4
2016-Jul-21 14:31N 35°02' E 139°35'1717.2
2016-Jul-21 13:33N 35°16' E 139°46'1515.0
2016-Jul-21 12:34N 35°30' E 139°51'7 7.2
2016-Jul-21 11:33N 35°37' E 139°48'0 0.0
2016-Jul-21 10:33N 35°37' E 139°48'0 0.0
2016-Jul-21 09:32N 35°37' E 139°48'0 0.0
2016-Jul-21 08:32N 35°37' E 139°48'0 0.0
2016-Jul-21 07:32N 35°37' E 139°48'0 0.0
2016-Jul-21 06:32N 35°37' E 139°48'0 0.0
2016-Jul-21 05:32N 35°37' E 139°48'0 0.0
2016-Jul-21 04:32N 35°37' E 139°48'0 0.0
2016-Jul-21 03:32N 35°37' E 139°48'0 0.0
2016-Jul-21 02:32N 35°37' E 139°48'0 0.0
2016-Jul-21 01:32N 35°37' E 139°48'0 0.0
2016-Jul-21 00:32N 35°37' E 139°48'0 0.0
2016-Jul-20 23:32N 35°37' E 139°48'0 0.0
2016-Jul-20 22:32N 35°37' E 139°48'0 0.0
2016-Jul-20 21:33N 35°37' E 139°48'0 0.1
2016-Jul-20 20:33N 35°37' E 139°47'1111.3
2016-Jul-20 19:33N 35°26' E 139°48'1212.1
2016-Jul-20 18:33N 35°14' E 139°47'2518.6
2016-Jul-20 17:12N 34°54' E 139°27'5821.6
2016-Jul-20 14:32N 34°25' E 138°27'17519.5
2016-Jul-20 05:34N 33°55' E 134°58'2423.6
2016-Jul-20 04:33N 34°19' E 134°59'1717.0
2016-Jul-20 03:33N 34°36' E 134°56'  
2016-Jul-16 17:30N 34°27' E 138°29'5417.9
2016-Jul-16 14:31N 34°55' E 139°25'2021.1
2016-Jul-16 13:33N 35°08' E 139°44'1313.0
2016-Jul-16 12:33N 35°21' E 139°42'1716.8
2016-Jul-16 11:33N 35°36' E 139°50'2 2.2
2016-Jul-16 10:33N 35°37' E 139°48'0 0.0
2016-Jul-16 09:31N 35°37' E 139°48'0 0.0
2016-Jul-16 08:25N 35°37' E 139°48'0 0.0
2016-Jul-16 07:31N 35°37' E 139°48'0 0.0
2016-Jul-16 06:31N 35°37' E 139°48'0 0.0
2016-Jul-16 04:31N 35°37' E 139°48'0 0.0
2016-Jul-16 03:28N 35°37' E 139°48'  
Track history (hours):
 
Tides and Currents Weather Stations Pressure Air Temp Water Temp Dewpoint Dewpoint Depression Visibility Wind Speed Wind Dir Waves Ship Positions

Sunflower Hakata

Last reported at 2016-Jul-26 02:34 UTC. Time now 2016-Jul-26 02:41 UTC.
Position N 35°37' E 139°48'.

Length 167 m; draft 6.5 m.

Type: Cargo ship. MMSI: 431501764.

Date/timePositionNaut miles runAvg speedWind from/ knotsBaromVisibWave heightAir tempDewpointWater temp
2016-Jul-26 02:34N 35°37' E 139°48'0 0.0
2016-Jul-26 01:31N 35°37' E 139°48'0 0.0
2016-Jul-26 00:34N 35°37' E 139°48'0 0.0
2016-Jul-25 23:31N 35°37' E 139°48'0 0.2
2016-Jul-25 22:31N 35°37' E 139°48'0 0.0
2016-Jul-25 21:31N 35°37' E 139°48'0 0.0
2016-Jul-25 20:31N 35°37' E 139°48'0 0.0
2016-Jul-25 19:31N 35°37' E 139°48'0 0.0
2016-Jul-25 18:28N 35°37' E 139°48'0 0.0
2016-Jul-25 17:31N 35°37' E 139°48'0 0.0
2016-Jul-25 16:31N 35°37' E 139°48'0 0.0
2016-Jul-25 15:28N 35°37' E 139°48'0 0.0
2016-Jul-25 14:31N 35°37' E 139°48'0 0.0
2016-Jul-25 13:31N 35°37' E 139°48'0 0.0
2016-Jul-25 12:31N 35°37' E 139°48'0 0.0
2016-Jul-25 11:31N 35°37' E 139°48'0 0.0
2016-Jul-25 10:28N 35°37' E 139°48'0 0.0
2016-Jul-25 09:31N 35°37' E 139°48'0 0.0
2016-Jul-25 08:31N 35°37' E 139°48'0 0.0
2016-Jul-25 07:28N 35°37' E 139°48'0 0.0
2016-Jul-25 06:28N 35°37' E 139°48'0 0.0
2016-Jul-25 05:28N 35°37' E 139°48'0 0.0
2016-Jul-25 04:31N 35°37' E 139°48'0 0.0
2016-Jul-25 03:31N 35°37' E 139°48'0 0.0
2016-Jul-25 02:31N 35°37' E 139°48'0 0.0
2016-Jul-25 01:31N 35°37' E 139°48'0 0.0
2016-Jul-25 00:31N 35°37' E 139°48'0 0.0
2016-Jul-24 23:31N 35°37' E 139°48'0 0.0
2016-Jul-24 22:31N 35°37' E 139°48'0 0.0
2016-Jul-24 21:31N 35°37' E 139°48'0 0.0
2016-Jul-24 20:33N 35°37' E 139°48'6 6.4
2016-Jul-24 19:33N 35°31' E 139°52'1514.7
2016-Jul-24 18:33N 35°18' E 139°45'1615.7
2016-Jul-24 17:33N 35°03' E 139°40'7221.6
2016-Jul-24 14:14N 34°24' E 138°26'17317.8
2016-Jul-24 04:34N 34°08' E 134°59'2121.2
2016-Jul-24 03:34N 34°29' E 135°01'1211.7
2016-Jul-24 02:31N 34°33' E 134°47'  
2016-Jul-21 15:14N 34°52' E 139°20'1622.4
2016-Jul-21 14:31N 35°02' E 139°35'1717.2
2016-Jul-21 13:33N 35°16' E 139°46'1515.0
2016-Jul-21 12:34N 35°30' E 139°51'7 7.2
2016-Jul-21 11:33N 35°37' E 139°48'0 0.0
2016-Jul-21 10:33N 35°37' E 139°48'0 0.0
2016-Jul-21 09:32N 35°37' E 139°48'0 0.0
2016-Jul-21 08:32N 35°37' E 139°48'0 0.0
2016-Jul-21 07:32N 35°37' E 139°48'0 0.0
2016-Jul-21 06:32N 35°37' E 139°48'0 0.0
2016-Jul-21 05:32N 35°37' E 139°48'0 0.0
2016-Jul-21 04:32N 35°37' E 139°48'0 0.0
2016-Jul-21 03:32N 35°37' E 139°48'0 0.0
2016-Jul-21 02:32N 35°37' E 139°48'0 0.0
2016-Jul-21 01:32N 35°37' E 139°48'0 0.0
2016-Jul-21 00:32N 35°37' E 139°48'0 0.0
2016-Jul-20 23:32N 35°37' E 139°48'0 0.0
2016-Jul-20 22:32N 35°37' E 139°48'0 0.0
2016-Jul-20 21:33N 35°37' E 139°48'0 0.1
2016-Jul-20 20:33N 35°37' E 139°47'1111.3
2016-Jul-20 19:33N 35°26' E 139°48'1212.1
2016-Jul-20 18:33N 35°14' E 139°47'2518.6
2016-Jul-20 17:12N 34°54' E 139°27'5821.6
2016-Jul-20 14:32N 34°25' E 138°27'17519.5
2016-Jul-20 05:34N 33°55' E 134°58'2423.6
2016-Jul-20 04:33N 34°19' E 134°59'1717.0
2016-Jul-20 03:33N 34°36' E 134°56'  
2016-Jul-16 17:30N 34°27' E 138°29'5417.9
2016-Jul-16 14:31N 34°55' E 139°25'2021.1
2016-Jul-16 13:33N 35°08' E 139°44'1313.0
2016-Jul-16 12:33N 35°21' E 139°42'1716.8
2016-Jul-16 11:33N 35°36' E 139°50'2 2.2
2016-Jul-16 10:33N 35°37' E 139°48'0 0.0
2016-Jul-16 09:31N 35°37' E 139°48'0 0.0
2016-Jul-16 08:25N 35°37' E 139°48'0 0.0
2016-Jul-16 07:31N 35°37' E 139°48'0 0.0
2016-Jul-16 06:31N 35°37' E 139°48'0 0.0
2016-Jul-16 04:31N 35°37' E 139°48'0 0.0
2016-Jul-16 03:28N 35°37' E 139°48'  

Dump ship's entire track history